createdAt,value
2024-04-08T05:12:21.283Z,68.86
2024-04-08T05:32:28.992Z,68.90
2024-04-08T05:37:34.475Z,68.82
2024-04-08T05:42:39.870Z,68.56
2024-04-08T05:47:55.565Z,68.50
2024-04-08T05:53:01.040Z,68.17
2024-04-08T05:58:08.716Z,68.66
2024-04-08T06:03:16.774Z,68.70
2024-04-08T06:08:22.203Z,68.20
2024-04-08T06:13:28.940Z,68.26
2024-04-08T06:18:37.063Z,68.52
2024-04-08T06:23:42.521Z,68.52
2024-04-08T06:28:47.985Z,69.00
2024-04-08T06:33:56.446Z,68.97
2024-04-08T06:39:02.740Z,68.63
2024-04-08T06:44:09.020Z,68.44
2024-04-08T06:49:17.140Z,68.62
2024-04-08T06:54:22.835Z,68.80
2024-04-08T06:59:29.480Z,68.91
2024-04-08T07:04:37.643Z,68.72
2024-04-08T07:09:43.153Z,69.03
2024-04-08T07:14:48.719Z,68.43
2024-04-08T07:19:56.814Z,69.15
2024-04-08T07:25:02.240Z,68.41
2024-04-08T07:30:08.190Z,68.41
2024-04-08T07:35:24.412Z,69.25
2024-04-08T07:40:31.514Z,69.13
2024-04-08T07:45:36.917Z,69.15
2024-04-08T07:50:45.113Z,68.57
2024-04-08T07:55:50.863Z,69.10
2024-04-08T08:01:02.677Z,69.16
2024-04-08T08:06:11.234Z,69.34
2024-04-08T08:11:17.061Z,69.03
2024-04-08T08:16:22.546Z,69.37
2024-04-08T08:21:30.586Z,69.04
2024-04-08T08:26:36.070Z,68.98
2024-04-08T08:31:41.936Z,69.44
2024-04-08T08:36:51.541Z,69.33
2024-04-08T08:42:00.126Z,69.16
2024-04-08T08:47:06.200Z,68.92
2024-04-08T08:52:14.395Z,69.43
2024-04-08T08:57:20.114Z,68.90
2024-04-08T09:02:25.526Z,69.06
2024-04-08T09:07:33.624Z,68.87
2024-04-08T09:12:39.101Z,69.08
2024-04-08T09:17:44.570Z,69.35
2024-04-08T09:22:53.111Z,69.31
2024-04-08T09:33:10.155Z,68.79
2024-04-08T09:38:19.504Z,69.28
2024-04-08T09:43:24.943Z,68.87
2024-04-08T09:48:31.890Z,69.19
2024-04-08T09:53:40.009Z,69.42
2024-04-08T09:58:46.031Z,69.12
2024-04-08T10:03:54.145Z,69.06
2024-04-08T10:09:02.710Z,69.35
2024-04-08T10:14:19.909Z,68.91
2024-04-08T10:19:25.321Z,69.17
2024-04-08T10:24:39.476Z,69.35
2024-04-08T10:29:46.557Z,68.78
2024-04-08T10:34:52.048Z,68.79
2024-04-08T10:40:04.711Z,69.01
2024-04-08T10:45:10.237Z,68.75
2024-04-08T10:50:16.087Z,68.57
2024-04-08T10:55:24.490Z,68.69
2024-04-08T11:00:31.171Z,68.72
2024-04-08T11:05:36.648Z,68.65
2024-04-08T11:10:48.138Z,68.76
2024-04-08T11:15:54.592Z,68.51
2024-04-08T11:21:00.060Z,69.12
2024-04-08T11:26:08.827Z,68.44
2024-04-08T11:31:14.447Z,68.67
2024-04-08T11:36:20.208Z,68.79
2024-04-08T11:41:29.107Z,68.67
2024-04-08T11:46:35.086Z,68.66
2024-04-08T11:51:40.571Z,68.88
2024-04-08T11:56:48.714Z,68.35
2024-04-08T12:01:54.146Z,68.63
2024-04-08T12:06:59.825Z,68.41
2024-04-08T12:12:10.657Z,68.34
2024-04-08T12:17:16.093Z,68.87
2024-04-08T12:22:22.002Z,68.27
2024-04-08T12:27:32.177Z,68.96
2024-04-08T12:32:37.599Z,68.69
2024-04-08T12:37:43.011Z,68.78
2024-04-08T12:42:51.365Z,68.29
2024-04-08T12:47:57.244Z,68.88
2024-04-08T12:53:03.142Z,68.48
2024-04-08T12:58:11.795Z,68.77
2024-04-08T13:03:17.292Z,68.38
2024-04-08T13:08:23.266Z,68.99
2024-04-08T13:13:31.355Z,68.88
2024-04-08T13:18:36.842Z,69.03
2024-04-08T13:23:42.815Z,68.90
2024-04-08T13:28:50.929Z,68.58
2024-04-08T13:33:56.521Z,68.63
2024-04-08T13:39:02.118Z,69.21
2024-04-08T13:44:10.611Z,69.01
2024-04-08T13:49:16.017Z,68.51
2024-04-08T13:54:21.483Z,68.40
2024-04-08T13:59:29.570Z,68.69
2024-04-08T14:04:35.052Z,68.31
2024-04-08T14:09:40.534Z,69.04
2024-04-08T14:14:48.689Z,68.71
2024-04-08T14:19:54.219Z,68.29
2024-04-08T14:24:59.734Z,69.04
2024-04-08T14:30:09.552Z,68.72
2024-04-08T14:35:15.016Z,68.38
2024-04-08T14:40:21.065Z,68.39
2024-04-08T14:45:29.916Z,68.60
2024-04-08T14:50:35.659Z,68.47
2024-04-08T14:55:42.379Z,68.62
2024-04-08T15:00:50.768Z,67.91
2024-04-08T15:05:56.747Z,68.34
2024-04-08T15:11:05.327Z,67.71
2024-04-08T15:16:13.659Z,68.35
2024-04-08T15:21:20.777Z,67.93
2024-04-08T15:26:26.197Z,68.08
2024-04-08T15:31:34.255Z,67.79
2024-04-08T15:36:40.108Z,67.59
2024-04-08T15:41:45.547Z,67.40
2024-04-08T15:46:54.457Z,67.67
2024-04-08T15:52:00.474Z,68.01
2024-04-08T15:57:07.766Z,67.74
2024-04-08T16:02:17.374Z,67.86
2024-04-08T16:07:23.430Z,67.94
2024-04-08T16:12:32.069Z,67.72
2024-04-08T16:17:42.131Z,68.06
2024-04-08T16:23:02.078Z,67.70
2024-04-08T16:28:13.510Z,67.45
2024-04-08T16:33:21.781Z,67.08
2024-04-08T16:38:27.368Z,67.06
2024-04-08T16:43:33.168Z,67.61
2024-04-08T16:48:41.551Z,67.32
2024-04-08T16:53:47.080Z,67.02
2024-04-08T16:58:54.074Z,66.49
2024-04-08T17:04:05.511Z,66.41
2024-04-08T17:09:12.058Z,66.81
2024-04-08T17:14:17.847Z,67.08
2024-04-08T17:19:26.044Z,66.63
2024-04-08T17:24:31.787Z,66.79
2024-04-08T17:29:37.483Z,66.45
2024-04-08T17:34:45.593Z,67.02
2024-04-08T17:39:51.045Z,66.10
2024-04-08T17:44:56.493Z,66.65
2024-04-08T17:50:05.213Z,66.29
2024-04-08T17:55:10.680Z,66.71
2024-04-08T18:00:16.763Z,66.31
2024-04-08T18:05:24.986Z,66.62
2024-04-08T18:10:30.836Z,66.68
2024-04-08T18:15:37.453Z,66.43
2024-04-08T18:20:45.653Z,65.89
2024-04-08T18:25:58.108Z,66.70
2024-04-08T18:31:05.495Z,66.84
2024-04-08T18:36:14.331Z,66.04
2024-04-08T18:41:20.069Z,66.45
2024-04-08T18:46:26.454Z,66.35
2024-04-08T18:51:34.870Z,66.00
2024-04-08T18:56:40.324Z,66.54
2024-04-08T19:01:45.789Z,66.25
2024-04-08T19:06:53.835Z,65.90
2024-04-08T19:11:59.716Z,66.60
2024-04-08T19:17:05.253Z,66.36
2024-04-08T19:22:13.743Z,66.53
2024-04-08T19:27:19.456Z,65.90
2024-04-08T19:32:24.985Z,66.50
2024-04-08T19:37:33.215Z,65.78
2024-04-08T19:42:38.744Z,66.55
2024-04-08T19:47:44.688Z,66.60
2024-04-08T19:52:54.174Z,66.00
2024-04-08T19:57:59.890Z,66.49
2024-04-08T20:03:05.687Z,66.16
2024-04-08T20:08:13.759Z,66.67
2024-04-08T20:13:19.244Z,65.80
2024-04-08T20:18:24.868Z,65.85
2024-04-08T20:23:32.988Z,66.23
2024-04-08T20:28:38.831Z,66.60
2024-04-08T20:33:44.717Z,66.20
2024-04-08T20:38:53.429Z,65.63
2024-04-08T20:43:58.943Z,66.13
2024-04-08T20:49:04.776Z,66.46
2024-04-08T20:54:13.255Z,66.53
2024-04-08T20:59:19.015Z,65.74
2024-04-08T21:04:24.525Z,65.71
2024-04-08T21:09:37.241Z,65.69
2024-04-08T21:14:43.124Z,65.92
2024-04-08T21:19:48.955Z,65.44
2024-04-08T21:24:57.010Z,65.72
2024-04-08T21:30:02.606Z,66.07
2024-04-08T21:35:08.472Z,66.18
2024-04-08T21:40:17.212Z,65.95
2024-04-08T21:45:22.696Z,65.85
2024-04-08T21:50:28.207Z,66.15
2024-04-08T21:55:36.691Z,66.10
2024-04-08T22:00:44.945Z,65.34
2024-04-08T22:05:50.712Z,65.41
2024-04-08T22:10:59.852Z,65.98
2024-04-08T22:16:06.395Z,65.96
2024-04-08T22:21:11.921Z,65.68
2024-04-08T22:26:20.051Z,65.88
2024-04-08T22:31:25.518Z,65.69
2024-04-08T22:36:30.993Z,65.14
2024-04-08T22:41:44.748Z,65.92
2024-04-08T22:46:57.653Z,65.88
2024-04-08T22:52:03.152Z,65.10
2024-04-08T22:57:12.037Z,65.82
2024-04-08T23:02:17.509Z,65.45
2024-04-08T23:07:23.285Z,65.74
2024-04-08T23:12:32.017Z,65.35
2024-04-08T23:17:38.097Z,65.61
2024-04-08T23:22:43.559Z,65.03
2024-04-08T23:27:52.490Z,65.45
2024-04-08T23:33:00.979Z,65.74
2024-04-08T23:38:07.327Z,64.95
2024-04-08T23:43:15.605Z,65.03
2024-04-08T23:48:21.126Z,64.92
2024-04-08T23:53:26.968Z,65.17
2024-04-08T23:58:35.785Z,65.04
